CheckWX is a tool to help pilots better visualize weather data.  It is not intended as a substitute for an official pre-flight weather briefing.

09:32:46 UTC

KBKL METAR
Burke Lakefront Airport
Cleveland, Ohio, USA
Current

40 mins ago

KBKL 240853Z 22003KT 10SM CLR 13/10 A3007 RMK AO2 SLP183 T01280100 53006
Observed
May-24 @ 08:53 UTC
Wind
  • 220° at 3 KTS
Visibility
10 SM
Flight Rules
VFR
Cloud Levels
  • Clear skies
Temperature
13°C / 55°F
Dewpoint
10°C / 50°F
Humidity
82%
Altimeter
30.07" Hg
Pressure
1018.32 hPa
Previous

2 hours ago

KBKL 240753Z 29003KT 10SM CLR 13/10 A3006 RMK AO2 SLP177 T01330100
Observed
May-24 @ 07:53 UTC
Wind
  • 290° at 3 KTS
Visibility
10 SM
Flight Rules
VFR
Cloud Levels
  • Clear skies
Temperature
13°C / 55°F
Dewpoint
10°C / 50°F
Humidity
82%
Altimeter
30.06" Hg
Pressure
1017.92 hPa
Previous

3 hours ago

KBKL 240653Z AUTO 26006KT 10SM CLR 14/11 A3006 RMK AO2 SLP176 T01390106
Observed
May-24 @ 06:53 UTC
Wind
  • 260° at 6 KTS
Visibility
10 SM
Flight Rules
VFR
Cloud Levels
  • Clear skies
Temperature
14°C / 57°F
Dewpoint
11°C / 52°F
Humidity
82%
Altimeter
30.06" Hg
Pressure
1017.92 hPa